ADDS METAR Data INFO
IDs: Format: Raw Decoded Include TAF

Data at: 1350 UTC 18 Jan 2018

KBPI 181253Z AUTO 28003KT 10SM CLR M09/M11 A3024 RMK AO2 SLP279 T10891106
KBPI 181153Z AUTO 00000KT 10SM CLR M09/M11 A3025 RMK AO2 SLP272 T10941111 11089 21117 55004
KBPI 181053Z AUTO 00000KT 10SM CLR M09/M11 A3024 RMK AO2 SLP251 T10941111
KBPI 180953Z AUTO 08003KT 10SM CLR M11/M13 A3027 RMK AO2 SLP268 T11111128
KBPI 180853Z AUTO 00000KT 10SM CLR M12/M13 A3026 RMK AO2 SLP271 T11171133 58016
KBPI 180753Z AUTO 03004KT 10SM CLR M12/M13 A3030 RMK AO2 SLP286 T11171133
KBPI 180653Z AUTO 07004KT 10SM CLR M11/M12 A3032 RMK AO2 SLP296 T11061117 400441156
KBPI 180553Z AUTO 34003KT 10SM CLR M09/M11 A3032 RMK AO2 SLP301 T10891111 11006 21106 55004
KBPI 180453Z AUTO 22003KT 10SM CLR M10/M12 A3032 RMK AO2 SLP317 T11001117
KBPI 180353Z AUTO 34007KT 10SM CLR M09/M11 A3032 RMK AO2 SLP326 T10941111
KBPI 180253Z AUTO 00000KT 10SM CLR M07/M09 A3033 RMK AO2 SLP326 T10671089 58002
KBPI 180153Z AUTO 00000KT 10SM CLR M06/M09 A3035 RMK AO2 SLP341 T10611089
KBPI 180053Z AUTO 02007KT 10SM CLR M05/M08 A3035 RMK AO2 SLP339 T10501083
KBPI 172353Z AUTO 04008KT 10SM CLR M01/M07 A3034 RMK AO2 SLP319 T10061067 10044 21022 53006
KBPI 172253Z AUTO 00000KT 10SM CLR 04/M07 A3034 RMK AO2 SLP297 T00441072
KBPI 172153Z AUTO 00000KT 10SM CLR 04/M07 A3031 RMK AO2 SLP292 T00391072
KBPI 172053Z AUTO VRB04KT 10SM CLR 04/M07 A3032 RMK AO2 SLP291 T00391072 58021
KBPI 171953Z AUTO 16005KT 10SM CLR 03/M08 A3034 RMK AO2 SLP302 T00281078
KBPI 171853Z AUTO 20005KT 10SM CLR 01/M08 A3038 RMK AO2 SLP330 T00061078
KBPI 171753Z AUTO 00000KT 10SM CLR M02/M08 A3040 RMK AO2 SLP341 T10221083 11022 21156 51015
KBPI 171653Z AUTO 22004KT 10SM CLR M07/M11 A3039 RMK AO2 SLP357 T10671106
KBPI 171553Z AUTO 00000KT 10SM CLR M09/M12 A3036 RMK AO2 SLP350 T10941122
KBPI 171453Z AUTO 00000KT 10SM CLR M12/M14 A3034 RMK AO2 SLP346 T11171139 53004
KBPI 171353Z AUTO 33005KT 10SM CLR M14/M16 A3033 RMK AO2 SLP347 T11441161
KBPI 171253Z AUTO 30004KT 10SM CLR M15/M16 A3033 RMK AO2 SLP342 T11501161
KBPI 171153Z AUTO 00000KT 10SM CLR M14/M16 A3032 RMK AO2 SLP323 T11391161 11106 21150 51011
KBPI 171053Z AUTO 09004KT 10SM CLR M12/M15 A3032 RMK AO2 SLP309 T11221150
KBPI 170953Z AUTO 07003KT 10SM CLR M13/M16 A3030 RMK AO2 SLP306 T11331161
KBPI 170853Z AUTO 00000KT 10SM CLR M12/M14 A3029 RMK AO2 SLP296 T11221144 56006
KBPI 170753Z AUTO 31004KT 10SM CLR M12/M14 A3029 RMK AO2 SLP300 T11171139
KBPI 170653Z AUTO 28003KT 10SM CLR M14/M16 A3030 RMK AO2 SLP313 T11391161 410061144
KBPI 170553Z AUTO 33003KT 10SM CLR M14/M16 A3031 RMK AO2 SLP321 T11391161 11039 21144 51007
KBPI 170453Z AUTO 05004KT 10SM SCT110 M14/M16 A3030 RMK AO2 SLP325 T11441161
KBPI 170353Z AUTO 07003KT 10SM CLR M13/M16 A3029 RMK AO2 SLP326 T11331156
KBPI 170253Z AUTO 03003KT 10SM CLR M12/M14 A3028 RMK AO2 SLP326 T11171144 57002
KBPI 170153Z AUTO 34004KT 10SM CLR M11/M13 A3029 RMK AO2 SLP316 T11061133